createdAt,value
2022-10-31T00:01:42.658Z,12.27
2022-10-31T00:04:15.995Z,13.80
2022-10-31T00:06:48.702Z,13.67
2022-10-31T00:09:18.512Z,14.10
2022-10-31T00:12:01.602Z,13.03
2022-10-31T00:14:39.550Z,13.87
2022-10-31T00:17:14.791Z,12.73
2022-10-31T00:19:44.982Z,14.33
2022-10-31T00:22:23.986Z,13.73
2022-10-31T00:24:55.328Z,13.77
2022-10-31T00:27:30.293Z,13.60
2022-10-31T00:30:02.294Z,14.57
2022-10-31T00:32:33.016Z,13.60
2022-10-31T00:35:06.799Z,13.43
2022-10-31T00:37:43.505Z,12.67
2022-10-31T00:40:15.901Z,11.70
2022-10-31T00:42:46.448Z,11.87
2022-10-31T00:45:16.569Z,12.17
2022-10-31T00:47:48.260Z,12.67
2022-10-31T00:50:29.058Z,12.97
2022-10-31T00:53:09.504Z,13.47
2022-10-31T00:55:41.504Z,13.03
2022-10-31T00:58:12.393Z,13.77
2022-10-31T01:00:46.844Z,13.07
2022-10-31T01:03:22.701Z,12.57
2022-10-31T01:06:03.057Z,13.63
2022-10-31T01:08:46.976Z,14.17
2022-10-31T01:11:19.201Z,15.00
2022-10-31T01:13:58.490Z,15.23
2022-10-31T01:16:30.968Z,14.60
2022-10-31T01:19:03.215Z,13.93
2022-10-31T01:21:43.652Z,14.37
2022-10-31T01:24:20.920Z,13.83
2022-10-31T01:26:52.955Z,13.13
2022-10-31T01:29:24.121Z,13.27
2022-10-31T01:31:55.924Z,14.33
2022-10-31T01:34:32.693Z,13.83
2022-10-31T01:37:07.828Z,13.70
2022-10-31T01:39:41.496Z,13.80
2022-10-31T01:42:21.672Z,14.83
2022-10-31T01:45:02.376Z,15.97
2022-10-31T01:47:43.908Z,15.13
2022-10-31T01:50:18.755Z,14.27
2022-10-31T01:52:54.743Z,15.57
2022-10-31T01:55:30.378Z,14.97
2022-10-31T01:58:06.995Z,15.87
2022-10-31T02:00:49.296Z,15.30
2022-10-31T02:03:38.375Z,14.50
2022-10-31T02:06:56.616Z,14.10
2022-10-31T02:09:41.318Z,12.93
2022-10-31T02:12:16.907Z,12.47
2022-10-31T02:14:56.972Z,13.27
2022-10-31T02:17:29.799Z,13.63
2022-10-31T02:20:15.995Z,13.53
2022-10-31T02:23:15.762Z,12.83
2022-10-31T02:26:04.103Z,12.27
2022-10-31T02:29:01.820Z,11.93
2022-10-31T02:31:59.422Z,11.97
2022-10-31T02:34:37.745Z,13.73
2022-10-31T02:37:20.934Z,13.47
2022-10-31T02:40:02.479Z,13.47
2022-10-31T02:42:58.763Z,14.77
2022-10-31T02:45:36.108Z,14.97
2022-10-31T02:48:15.899Z,14.93
2022-10-31T02:50:52.006Z,14.73
2022-10-31T02:53:22.107Z,14.07
2022-10-31T02:55:59.681Z,14.50
2022-10-31T02:58:38.122Z,14.37
2022-10-31T03:01:36.219Z,14.37
2022-10-31T03:04:49.925Z,13.80
2022-10-31T03:07:28.763Z,12.80
2022-10-31T03:10:11.909Z,12.30
2022-10-31T03:12:48.796Z,12.43
2022-10-31T03:15:35.971Z,13.63
2022-10-31T03:18:13.458Z,12.37
2022-10-31T03:20:56.413Z,12.37
2022-10-31T03:23:29.930Z,12.23
2022-10-31T03:26:06.618Z,12.90
2022-10-31T03:28:47.550Z,12.53
2022-10-31T03:31:24.099Z,12.27
2022-10-31T03:33:59.399Z,12.47
2022-10-31T03:36:44.254Z,12.80
2022-10-31T03:39:37.651Z,11.83
2022-10-31T03:42:15.989Z,11.37
2022-10-31T03:45:08.311Z,12.10
2022-10-31T03:47:48.889Z,12.23
2022-10-31T03:50:25.850Z,13.17
2022-10-31T03:53:06.069Z,12.70
2022-10-31T03:55:58.277Z,11.93
2022-10-31T03:58:50.042Z,12.20
2022-10-31T04:01:40.676Z,11.90
2022-10-31T04:04:23.669Z,11.70
2022-10-31T04:07:07.472Z,12.00
2022-10-31T04:09:48.318Z,11.13
2022-10-31T04:12:19.573Z,10.77
2022-10-31T04:14:59.156Z,10.70
2022-10-31T04:17:33.557Z,11.27
2022-10-31T04:20:12.187Z,11.47
2022-10-31T04:22:53.673Z,11.63
2022-10-31T04:25:44.729Z,11.53
2022-10-31T04:30:53.629Z,11.53
2022-10-31T04:33:25.553Z,10.57
2022-10-31T04:35:56.867Z,12.03
2022-10-31T04:38:26.534Z,14.03
2022-10-31T04:41:00.405Z,13.57
2022-10-31T04:43:50.636Z,12.43
2022-10-31T04:46:25.372Z,11.30
2022-10-31T04:48:56.495Z,11.93
2022-10-31T04:51:29.964Z,12.70
2022-10-31T04:54:02.172Z,12.77
2022-10-31T04:56:35.829Z,12.33
2022-10-31T04:59:16.568Z,13.77
2022-10-31T05:02:01.008Z,11.63
2022-10-31T05:04:47.503Z,12.07
2022-10-31T05:07:17.008Z,11.57
2022-10-31T05:09:47.141Z,11.70
2022-10-31T05:12:24.676Z,12.90
2022-10-31T05:15:12.512Z,12.13
2022-10-31T05:18:01.566Z,12.37
2022-10-31T05:21:11.244Z,12.00
2022-10-31T05:23:49.104Z,12.03
2022-10-31T05:26:19.711Z,12.50
2022-10-31T05:28:54.924Z,11.90
2022-10-31T05:31:33.352Z,12.17
2022-10-31T05:34:08.858Z,13.87
2022-10-31T05:37:13.995Z,11.87
2022-10-31T05:39:46.244Z,13.30
2022-10-31T05:42:20.756Z,13.20
2022-10-31T05:44:54.559Z,12.73
2022-10-31T05:47:40.360Z,12.33
2022-10-31T05:50:43.930Z,12.90
2022-10-31T05:53:20.359Z,12.17
2022-10-31T05:55:58.820Z,12.17
2022-10-31T05:58:36.774Z,11.73
2022-10-31T06:01:29.675Z,12.87
2022-10-31T06:04:07.895Z,11.40
2022-10-31T06:06:42.206Z,12.17
2022-10-31T06:09:19.735Z,12.63
2022-10-31T06:11:53.523Z,12.83
2022-10-31T06:14:29.911Z,12.23
2022-10-31T06:17:04.442Z,12.03
2022-10-31T06:19:53.281Z,12.07
2022-10-31T06:22:27.813Z,11.70
2022-10-31T06:25:00.623Z,11.50
2022-10-31T06:27:41.896Z,12.70
2022-10-31T06:30:17.482Z,13.80
2022-10-31T06:32:51.525Z,13.63
2022-10-31T06:35:27.374Z,14.50
2022-10-31T06:37:58.438Z,13.33
2022-10-31T06:40:41.964Z,13.67
2022-10-31T06:43:53.843Z,13.33
2022-10-31T06:46:41.492Z,14.03
2022-10-31T06:49:38.050Z,14.70
2022-10-31T06:52:23.770Z,14.53
2022-10-31T06:54:57.766Z,15.90
2022-10-31T06:57:28.487Z,16.13
2022-10-31T07:00:01.435Z,16.10
2022-10-31T07:02:57.770Z,17.23
2022-10-31T07:05:37.837Z,17.60
2022-10-31T07:08:13.115Z,16.20
2022-10-31T07:10:45.337Z,17.43
2022-10-31T07:13:19.380Z,17.57
2022-10-31T07:15:57.613Z,19.67
2022-10-31T07:18:31.385Z,18.03
2022-10-31T07:21:19.938Z,17.87
2022-10-31T07:23:59.097Z,18.10
2022-10-31T07:26:50.439Z,18.60
2022-10-31T07:29:22.597Z,20.47
2022-10-31T07:31:56.932Z,20.10
2022-10-31T07:34:31.064Z,22.10
2022-10-31T07:40:58.866Z,19.63
2022-10-31T07:43:41.087Z,19.80
2022-10-31T07:46:28.409Z,19.47
2022-10-31T07:49:42.097Z,18.23
2022-10-31T07:53:04.243Z,18.43
2022-10-31T07:56:24.009Z,19.00
2022-10-31T07:59:01.055Z,18.20
2022-10-31T08:01:50.677Z,19.40
2022-10-31T08:04:46.394Z,18.87
2022-10-31T08:08:15.079Z,17.87
2022-10-31T08:10:53.609Z,15.73
2022-10-31T08:13:27.696Z,14.07
2022-10-31T08:16:05.676Z,11.17
2022-10-31T08:18:44.380Z,8.50
2022-10-31T08:21:26.619Z,7.05
2022-10-31T08:24:41.885Z,7.40
2022-10-31T08:27:22.247Z,6.78
2022-10-31T08:30:20.315Z,6.70
2022-10-31T08:33:21.555Z,6.50
2022-10-31T08:36:17.630Z,6.47
2022-10-31T08:39:11.693Z,6.53
2022-10-31T08:41:45.762Z,6.22
2022-10-31T08:44:23.651Z,6.13
2022-10-31T08:46:55.158Z,6.25
2022-10-31T08:49:26.614Z,5.45
2022-10-31T08:55:04.131Z,6.03
2022-10-31T08:57:57.587Z,6.65
2022-10-31T09:00:35.425Z,6.05
2022-10-31T09:03:26.337Z,6.70
2022-10-31T09:05:59.887Z,5.95
2022-10-31T09:08:32.905Z,6.30
2022-10-31T09:11:04.103Z,6.47
2022-10-31T09:13:51.246Z,6.13
2022-10-31T09:16:41.930Z,6.50
2022-10-31T09:19:18.015Z,6.10
2022-10-31T09:21:49.001Z,5.85
2022-10-31T09:24:18.470Z,6.55
2022-10-31T09:26:47.362Z,6.25
2022-10-31T09:29:20.053Z,6.72
2022-10-31T09:31:58.913Z,6.80
2022-10-31T09:34:30.542Z,6.18
2022-10-31T09:37:08.059Z,5.82
2022-10-31T09:39:38.653Z,5.78
2022-10-31T09:42:46.073Z,5.22
2022-10-31T09:45:26.672Z,5.85
2022-10-31T09:48:14.065Z,6.18
2022-10-31T09:51:05.797Z,6.22
2022-10-31T09:54:07.680Z,6.40
2022-10-31T09:56:37.209Z,5.07
2022-10-31T09:59:14.410Z,6.30
2022-10-31T10:01:50.105Z,5.15
2022-10-31T10:04:38.851Z,6.88
2022-10-31T10:07:23.770Z,7.10
2022-10-31T10:10:21.024Z,4.57
2022-10-31T10:13:33.354Z,6.00
2022-10-31T10:16:27.536Z,5.22
2022-10-31T10:19:08.313Z,4.95
2022-10-31T10:21:48.207Z,5.28
2022-10-31T10:24:37.392Z,4.53
2022-10-31T10:27:22.198Z,5.10
2022-10-31T10:30:01.548Z,5.07
2022-10-31T10:32:32.958Z,4.75
2022-10-31T10:35:07.072Z,4.38
2022-10-31T10:37:42.160Z,4.68
2022-10-31T10:40:18.719Z,5.80
2022-10-31T10:43:27.324Z,5.03
2022-10-31T10:49:18.991Z,5.07
2022-10-31T10:52:02.791Z,4.55
2022-10-31T10:54:57.344Z,4.32
2022-10-31T10:57:42.639Z,4.38
2022-10-31T11:00:24.523Z,4.60
2022-10-31T11:02:57.998Z,4.50
2022-10-31T11:05:42.005Z,4.00
2022-10-31T11:08:12.423Z,4.43
2022-10-31T11:11:11.830Z,4.80
2022-10-31T11:14:10.835Z,4.35
2022-10-31T11:16:45.591Z,4.95
2022-10-31T11:19:20.647Z,5.22
2022-10-31T11:21:54.268Z,4.20
2022-10-31T11:24:26.814Z,4.78
2022-10-31T11:27:15.331Z,4.65
2022-10-31T11:29:44.722Z,4.00
2022-10-31T11:32:24.837Z,4.78
2022-10-31T11:35:00.162Z,4.30
2022-10-31T11:37:32.257Z,4.53
2022-10-31T11:40:09.453Z,4.65
2022-10-31T11:42:42.413Z,4.25
2022-10-31T11:45:19.814Z,4.13
2022-10-31T11:47:58.181Z,4.20
2022-10-31T11:50:34.583Z,4.30
2022-10-31T11:53:09.065Z,4.68
2022-10-31T11:55:41.188Z,5.10
2022-10-31T11:58:25.672Z,5.00
2022-10-31T12:00:58.561Z,4.32
2022-10-31T12:03:55.431Z,4.68
2022-10-31T12:06:37.846Z,4.00
2022-10-31T12:09:22.246Z,4.55
2022-10-31T12:12:05.244Z,4.55
2022-10-31T12:14:43.826Z,3.95
2022-10-31T14:44:25.188Z,4.23
2022-10-31T14:47:09.349Z,4.30
2022-10-31T14:53:55.188Z,4.45
2022-10-31T14:56:28.376Z,5.28
2022-10-31T14:59:01.774Z,6.03
2022-10-31T15:01:34.561Z,4.75
2022-10-31T15:04:22.875Z,4.90
2022-10-31T15:06:56.523Z,5.00
2022-10-31T15:09:27.097Z,4.88
2022-10-31T15:11:55.731Z,4.90
2022-10-31T15:14:27.944Z,5.07
2022-10-31T15:16:58.991Z,5.05
2022-10-31T15:19:30.426Z,6.82
2022-10-31T15:21:59.995Z,9.18
2022-10-31T15:24:35.052Z,12.13
2022-10-31T15:27:05.314Z,8.77
2022-10-31T15:29:35.920Z,7.72
2022-10-31T15:32:21.396Z,7.35
2022-10-31T15:34:50.264Z,6.43
2022-10-31T15:37:21.076Z,6.25
2022-10-31T15:39:51.687Z,7.60
2022-10-31T15:42:24.702Z,7.30
2022-10-31T15:45:01.031Z,7.47
2022-10-31T15:47:33.297Z,8.48
2022-10-31T15:50:03.863Z,7.35
2022-10-31T15:52:35.551Z,6.53
2022-10-31T15:55:07.263Z,5.88
2022-10-31T15:57:36.082Z,6.40
2022-10-31T16:00:23.065Z,6.28
2022-10-31T16:02:51.840Z,5.22
2022-10-31T16:05:21.822Z,5.50
2022-10-31T16:07:56.324Z,5.27
2022-10-31T16:10:26.289Z,5.67
2022-10-31T16:12:55.337Z,6.73
2022-10-31T16:15:25.524Z,7.43
2022-10-31T16:17:58.008Z,6.00
2022-10-31T16:20:33.359Z,5.27
2022-10-31T16:23:02.739Z,7.13
2022-10-31T16:25:38.068Z,5.73
2022-10-31T16:30:53.469Z,6.37
2022-10-31T16:33:28.583Z,6.40
2022-10-31T16:36:09.587Z,5.57
2022-10-31T16:38:44.581Z,6.50
2022-10-31T16:41:13.130Z,6.43
2022-10-31T16:43:41.703Z,6.83
2022-10-31T16:46:17.663Z,7.10
2022-10-31T16:48:46.627Z,6.60
2022-10-31T16:51:15.426Z,6.43
2022-10-31T16:53:46.682Z,7.67
2022-10-31T16:56:18.849Z,7.47
2022-10-31T16:58:47.598Z,7.23
2022-10-31T17:01:18.165Z,7.43
2022-10-31T17:03:46.927Z,7.63
2022-10-31T17:06:16.213Z,9.00
2022-10-31T17:08:45.202Z,7.20
2022-10-31T17:11:19.494Z,10.43
2022-10-31T17:13:48.078Z,10.97
2022-10-31T17:16:18.994Z,9.43
2022-10-31T17:18:47.761Z,9.87
2022-10-31T17:21:21.207Z,8.13
2022-10-31T17:23:50.034Z,11.00
2022-10-31T17:26:20.844Z,11.83
2022-10-31T17:28:49.562Z,13.23
2022-10-31T17:31:24.678Z,11.00
2022-10-31T17:34:02.211Z,9.60
2022-10-31T17:36:32.090Z,10.67
2022-10-31T17:39:00.568Z,10.67
2022-10-31T17:41:29.451Z,9.77
2022-10-31T17:43:58.782Z,10.63
2022-10-31T17:46:29.057Z,10.50
2022-10-31T17:48:57.789Z,12.13
2022-10-31T17:51:28.733Z,11.23
2022-10-31T17:53:57.292Z,11.50
2022-10-31T17:56:26.133Z,12.33
2022-10-31T17:58:54.771Z,11.83
2022-10-31T18:01:23.435Z,12.30
2022-10-31T18:03:56.725Z,10.83
2022-10-31T18:06:33.480Z,10.87
2022-10-31T18:09:04.877Z,11.60
2022-10-31T18:11:34.373Z,11.13
2022-10-31T18:14:02.894Z,10.80
2022-10-31T18:16:31.648Z,11.63
2022-10-31T18:19:02.167Z,11.00
2022-10-31T18:21:31.058Z,12.27
2022-10-31T18:24:01.068Z,11.50
2022-10-31T18:26:30.368Z,12.03
2022-10-31T18:28:59.092Z,11.37
2022-10-31T18:31:27.999Z,10.30
2022-10-31T18:33:58.336Z,11.30
2022-10-31T18:36:28.625Z,10.93
2022-10-31T18:39:00.003Z,11.63
2022-10-31T18:41:28.784Z,11.73
2022-10-31T18:44:00.372Z,12.27
2022-10-31T18:46:29.880Z,11.50
2022-10-31T18:48:58.481Z,10.43
2022-10-31T18:51:28.943Z,10.03
2022-10-31T18:53:59.783Z,11.43
2022-10-31T18:56:32.857Z,9.47
2022-10-31T18:59:02.478Z,10.90
2022-10-31T19:01:31.375Z,12.57
2022-10-31T19:04:01.109Z,13.47
2022-10-31T19:06:31.509Z,11.50
2022-10-31T19:09:01.742Z,12.13
2022-10-31T19:11:32.882Z,15.47
2022-10-31T19:14:01.872Z,13.33
2022-10-31T19:16:32.479Z,11.90
2022-10-31T19:19:01.745Z,10.47
2022-10-31T19:21:32.691Z,10.77
2022-10-31T19:24:02.301Z,11.67
2022-10-31T19:26:30.972Z,13.63
2022-10-31T19:28:59.793Z,25.97
2022-10-31T19:31:28.768Z,37.33
2022-10-31T19:33:58.076Z,34.27
2022-10-31T19:36:26.984Z,25.60
2022-10-31T19:38:58.314Z,20.43
2022-10-31T19:41:29.510Z,20.17
2022-10-31T19:44:01.761Z,20.23
2022-10-31T19:46:52.961Z,19.63
2022-10-31T19:49:20.062Z,19.70
2022-10-31T19:51:48.795Z,19.07
2022-10-31T19:54:19.199Z,18.23
2022-10-31T19:56:47.922Z,18.77
2022-10-31T19:59:16.708Z,17.60
2022-10-31T20:01:45.613Z,16.97
2022-10-31T20:04:14.382Z,16.53
2022-10-31T20:06:43.157Z,16.13
2022-10-31T20:09:14.240Z,18.17
2022-10-31T20:11:45.926Z,18.00
2022-10-31T20:14:16.807Z,15.67
2022-10-31T20:16:46.891Z,17.37
2022-10-31T20:19:16.025Z,19.27
2022-10-31T20:21:44.922Z,18.60
2022-10-31T20:24:13.871Z,22.17
2022-10-31T20:26:44.172Z,20.80
2022-10-31T20:29:16.255Z,19.33
2022-10-31T20:31:46.655Z,21.77
2022-10-31T20:34:15.809Z,22.90
2022-10-31T20:36:44.797Z,26.40
2022-10-31T20:39:13.543Z,24.53
2022-10-31T20:41:43.725Z,24.27
2022-10-31T20:44:12.837Z,22.63
2022-10-31T20:46:42.060Z,24.07
2022-10-31T20:49:11.265Z,22.27
2022-10-31T20:51:40.243Z,20.03
2022-10-31T20:54:12.539Z,20.97
2022-10-31T20:56:41.869Z,25.60
2022-10-31T20:59:15.281Z,23.40
2022-10-31T21:01:44.459Z,23.03
2022-10-31T21:04:13.798Z,23.23
2022-10-31T21:06:49.044Z,24.00
2022-10-31T21:09:19.169Z,21.83
2022-10-31T21:11:47.984Z,21.67
2022-10-31T21:14:19.090Z,20.93
2022-10-31T21:16:49.137Z,26.20
2022-10-31T21:19:17.900Z,27.53
2022-10-31T21:21:47.361Z,25.87
2022-10-31T21:24:20.903Z,26.40
2022-10-31T21:26:51.755Z,27.30
2022-10-31T21:29:23.361Z,29.60
2022-10-31T21:31:52.428Z,26.57
2022-10-31T21:34:22.841Z,27.03
2022-10-31T21:36:51.589Z,23.07
2022-10-31T21:39:21.313Z,21.33
2022-10-31T21:41:50.340Z,26.60
2022-10-31T21:44:19.268Z,26.43
2022-10-31T21:46:49.852Z,25.27
2022-10-31T21:49:19.506Z,24.80
2022-10-31T21:51:48.410Z,24.77
2022-10-31T21:54:28.342Z,44.57
2022-10-31T21:56:57.622Z,24.57
2022-10-31T21:59:26.958Z,25.83
2022-10-31T22:01:59.937Z,24.57
2022-10-31T22:04:29.256Z,24.67
2022-10-31T22:06:57.785Z,25.20
2022-10-31T22:09:26.580Z,25.53
2022-10-31T22:11:55.189Z,24.33
2022-10-31T22:14:24.392Z,22.60
2022-10-31T22:16:53.235Z,20.33
2022-10-31T22:19:23.509Z,19.87
2022-10-31T22:21:52.416Z,19.83
2022-10-31T22:24:21.319Z,18.87
2022-10-31T22:26:50.749Z,18.77
2022-10-31T22:29:21.684Z,19.30
2022-10-31T22:31:57.253Z,19.17
2022-10-31T22:34:29.915Z,19.17
2022-10-31T22:36:58.481Z,22.33
2022-10-31T22:39:27.190Z,21.90
2022-10-31T22:41:55.815Z,20.93
2022-10-31T22:44:24.516Z,20.00
2022-10-31T22:46:53.124Z,19.80
2022-10-31T22:49:21.667Z,21.50
2022-10-31T22:51:52.493Z,25.03
2022-10-31T22:54:21.239Z,27.00
2022-10-31T22:56:50.243Z,25.33
2022-10-31T22:59:19.016Z,25.30
2022-10-31T23:01:47.697Z,28.93
2022-10-31T23:04:17.346Z,31.93
2022-10-31T23:06:46.374Z,36.47
2022-10-31T23:09:18.744Z,37.47
2022-10-31T23:11:47.843Z,38.00
2022-10-31T23:14:20.874Z,37.23
2022-10-31T23:16:51.986Z,36.87
2022-10-31T23:19:23.836Z,35.80
2022-10-31T23:21:57.543Z,35.03
2022-10-31T23:24:34.741Z,37.03
2022-10-31T23:27:08.663Z,30.37
2022-10-31T23:29:43.428Z,35.63
2022-10-31T23:32:15.175Z,39.17
2022-10-31T23:34:44.044Z,37.20
2022-10-31T23:37:13.247Z,34.27
2022-10-31T23:39:43.486Z,35.57
2022-10-31T23:42:12.117Z,35.67
2022-10-31T23:44:40.705Z,37.27
2022-10-31T23:47:09.658Z,35.73
2022-10-31T23:49:38.235Z,35.13
2022-10-31T23:52:07.833Z,33.53
2022-10-31T23:54:36.593Z,36.20
2022-10-31T23:57:09.767Z,33.63
2022-10-31T23:59:38.562Z,33.73
